createdAt,value
2018-07-19T00:00:21.359Z,18.44
2018-07-19T00:01:21.380Z,18.50
2018-07-19T00:02:21.408Z,18.46
2018-07-19T00:03:21.433Z,18.31
2018-07-19T00:04:21.455Z,18.35
2018-07-19T00:05:21.480Z,18.32
2018-07-19T00:06:21.507Z,18.42
2018-07-19T00:07:21.530Z,18.34
2018-07-19T00:08:21.556Z,18.31
2018-07-19T00:09:21.584Z,18.38
2018-07-19T00:10:21.604Z,18.19
2018-07-19T00:11:21.633Z,18.36
2018-07-19T00:12:21.649Z,18.36
2018-07-19T00:13:21.675Z,18.38
2018-07-19T00:14:21.704Z,18.31
2018-07-19T00:15:21.728Z,18.39
2018-07-19T00:16:21.750Z,18.32
2018-07-19T00:17:21.775Z,18.31
2018-07-19T00:18:21.804Z,18.32
2018-07-19T00:19:21.827Z,18.39
2018-07-19T00:20:21.844Z,18.38
2018-07-19T00:21:21.869Z,18.31
2018-07-19T00:22:21.894Z,18.44
2018-07-19T00:23:21.923Z,18.38
2018-07-19T00:24:21.955Z,18.31
2018-07-19T00:25:21.971Z,18.35
2018-07-19T00:26:21.995Z,18.21
2018-07-19T00:27:22.012Z,18.21
2018-07-19T00:28:22.043Z,18.28
2018-07-19T00:29:22.063Z,18.25
2018-07-19T00:30:22.091Z,18.25
2018-07-19T00:31:22.114Z,18.23
2018-07-19T00:32:22.142Z,18.36
2018-07-19T00:33:22.167Z,18.23
2018-07-19T00:34:22.191Z,18.41
2018-07-19T00:35:22.215Z,18.25
2018-07-19T00:36:22.242Z,18.28
2018-07-19T00:37:22.266Z,18.31
2018-07-19T00:38:22.287Z,18.39
2018-07-19T00:39:22.305Z,18.32
2018-07-19T00:40:22.335Z,18.35
2018-07-19T00:41:22.365Z,18.39
2018-07-19T00:42:22.385Z,18.44
2018-07-19T00:43:22.404Z,18.35
2018-07-19T00:44:22.448Z,18.34
2018-07-19T00:45:22.459Z,18.23
2018-07-19T00:46:22.479Z,18.20
2018-07-19T00:47:22.501Z,18.21
2018-07-19T00:48:22.527Z,18.21
2018-07-19T00:49:22.562Z,18.21
2018-07-19T00:50:22.575Z,18.25
2018-07-19T00:51:22.609Z,18.19
2018-07-19T00:52:22.625Z,18.16
2018-07-19T00:53:22.647Z,18.04
2018-07-19T00:54:22.670Z,18.10
2018-07-19T00:55:22.695Z,18.13
2018-07-19T00:56:22.721Z,18.23
2018-07-19T00:57:22.745Z,18.14
2018-07-19T00:58:22.767Z,17.98
2018-07-19T00:59:22.793Z,18.01
2018-07-19T01:00:22.819Z,18.02
2018-07-19T01:01:22.845Z,17.98
2018-07-19T01:02:22.865Z,18.02
2018-07-19T01:03:22.891Z,17.99
2018-07-19T01:04:22.921Z,18.05
2018-07-19T01:05:22.937Z,17.98
2018-07-19T01:06:22.962Z,18.05
2018-07-19T01:07:22.982Z,17.99
2018-07-19T01:08:23.013Z,17.95
2018-07-19T01:09:23.033Z,17.87
2018-07-19T01:10:23.070Z,17.89
2018-07-19T01:11:23.083Z,17.91
2018-07-19T01:12:23.111Z,17.76
2018-07-19T01:13:23.128Z,17.80
2018-07-19T01:14:23.156Z,17.79
2018-07-19T01:15:23.179Z,17.76
2018-07-19T01:16:23.207Z,17.81
2018-07-19T01:17:23.224Z,17.76
2018-07-19T01:18:23.251Z,17.65
2018-07-19T01:19:23.278Z,17.70
2018-07-19T01:20:23.295Z,17.84
2018-07-19T01:21:23.330Z,17.84
2018-07-19T01:22:23.348Z,17.84
2018-07-19T01:23:23.366Z,17.73
2018-07-19T01:24:23.392Z,17.81
2018-07-19T01:25:23.419Z,17.74
2018-07-19T01:26:23.446Z,17.77
2018-07-19T01:27:23.473Z,17.71
2018-07-19T01:28:23.497Z,17.74
2018-07-19T01:29:23.515Z,17.76
2018-07-19T01:30:23.537Z,17.73
2018-07-19T01:31:23.560Z,17.66
2018-07-19T01:32:23.587Z,17.62
2018-07-19T01:33:23.606Z,17.65
2018-07-19T01:34:23.634Z,17.60
2018-07-19T01:35:23.657Z,17.63
2018-07-19T01:36:23.682Z,17.60
2018-07-19T01:37:23.700Z,17.65
2018-07-19T01:38:23.726Z,17.77
2018-07-19T01:39:23.754Z,17.87
2018-07-19T01:40:23.780Z,17.76
2018-07-19T01:41:23.805Z,17.84
2018-07-19T01:42:23.824Z,17.66
2018-07-19T01:43:23.851Z,17.46
2018-07-19T01:44:23.876Z,17.45
2018-07-19T01:45:23.900Z,17.36
2018-07-19T01:46:23.920Z,17.36
2018-07-19T01:47:23.944Z,17.36
2018-07-19T01:48:23.967Z,17.35
2018-07-19T01:49:23.996Z,17.40
2018-07-19T01:50:24.014Z,17.28
2018-07-19T01:51:24.036Z,17.30
2018-07-19T01:52:24.062Z,17.38
2018-07-19T01:53:24.086Z,17.30
2018-07-19T01:54:24.110Z,17.33
2018-07-19T01:55:24.136Z,17.33
2018-07-19T01:56:24.158Z,17.36
2018-07-19T01:57:24.176Z,17.39
2018-07-19T01:58:24.205Z,17.39
2018-07-19T01:59:24.226Z,17.36
2018-07-19T02:00:24.252Z,17.36
2018-07-19T02:01:24.280Z,17.35
2018-07-19T02:02:24.304Z,17.39
2018-07-19T02:03:24.327Z,17.42
2018-07-19T02:04:24.346Z,17.53
2018-07-19T02:05:24.370Z,17.47
2018-07-19T02:06:24.396Z,17.49
2018-07-19T02:07:24.424Z,17.47
2018-07-19T02:08:24.450Z,17.51
2018-07-19T02:09:24.466Z,17.46
2018-07-19T02:10:24.496Z,17.49
2018-07-19T02:11:24.510Z,17.39
2018-07-19T02:12:24.537Z,17.30
2018-07-19T02:13:24.559Z,17.38
2018-07-19T02:14:24.586Z,17.38
2018-07-19T02:15:24.608Z,17.40
2018-07-19T02:16:24.632Z,17.39
2018-07-19T02:18:24.677Z,17.35
2018-07-19T02:19:24.703Z,17.28
2018-07-19T02:20:24.729Z,17.32
2018-07-19T02:21:24.749Z,17.33
2018-07-19T02:22:24.770Z,17.39
2018-07-19T02:23:24.795Z,17.35
2018-07-19T02:24:24.825Z,17.30
2018-07-19T02:25:24.838Z,17.30
2018-07-19T02:26:24.866Z,17.30
2018-07-19T02:27:24.903Z,17.20
2018-07-19T02:28:24.920Z,17.21
2018-07-19T02:29:24.944Z,17.22
2018-07-19T02:30:24.967Z,17.27
2018-07-19T02:31:24.988Z,17.24
2018-07-19T02:32:25.013Z,17.27
2018-07-19T02:33:25.030Z,17.18
2018-07-19T02:34:25.060Z,17.07
2018-07-19T02:35:25.076Z,17.22
2018-07-19T02:36:25.102Z,17.18
2018-07-19T02:37:25.126Z,17.20
2018-07-19T02:38:25.144Z,17.15
2018-07-19T02:39:25.186Z,17.20
2018-07-19T02:40:25.200Z,17.07
2018-07-19T02:41:25.224Z,17.10
2018-07-19T02:42:25.266Z,17.12
2018-07-19T02:43:25.266Z,17.12
2018-07-19T02:44:25.289Z,17.00
2018-07-19T02:45:25.315Z,16.99
2018-07-19T02:46:25.335Z,16.88
2018-07-19T02:47:25.359Z,16.91
2018-07-19T02:48:25.382Z,17.00
2018-07-19T02:49:25.411Z,17.00
2018-07-19T02:50:25.432Z,16.98
2018-07-19T02:51:25.456Z,16.91
2018-07-19T02:52:25.474Z,16.91
2018-07-19T02:53:25.500Z,16.91
2018-07-19T02:54:25.524Z,16.78
2018-07-19T02:55:25.553Z,16.78
2018-07-19T02:56:25.572Z,16.88
2018-07-19T02:57:25.598Z,16.78
2018-07-19T02:58:25.619Z,16.78
2018-07-19T02:59:25.644Z,16.77
2018-07-19T03:00:25.668Z,16.77
2018-07-19T03:01:25.695Z,16.81
2018-07-19T03:02:25.712Z,16.80
2018-07-19T03:03:25.736Z,16.82
2018-07-19T03:04:25.766Z,16.75
2018-07-19T03:05:25.780Z,16.80
2018-07-19T03:06:25.813Z,16.78
2018-07-19T03:07:25.830Z,16.81
2018-07-19T03:08:25.851Z,16.80
2018-07-19T03:09:25.880Z,16.91
2018-07-19T03:10:25.903Z,16.90
2018-07-19T03:11:25.924Z,16.92
2018-07-19T03:12:25.943Z,16.92
2018-07-19T03:13:25.966Z,16.99
2018-07-19T03:14:26.000Z,16.92
2018-07-19T03:15:26.013Z,16.90
2018-07-19T03:16:26.038Z,16.88
2018-07-19T03:17:26.062Z,16.87
2018-07-19T03:18:26.083Z,16.82
2018-07-19T03:19:26.110Z,16.84
2018-07-19T03:20:26.127Z,16.91
2018-07-19T03:21:26.160Z,16.75
2018-07-19T03:22:26.174Z,16.75
2018-07-19T03:23:26.207Z,16.75
2018-07-19T03:24:26.224Z,16.82
2018-07-19T03:25:26.246Z,16.73
2018-07-19T03:26:26.277Z,16.77
2018-07-19T03:27:26.293Z,16.85
2018-07-19T03:28:26.322Z,16.87
2018-07-19T03:29:26.340Z,16.91
2018-07-19T03:30:26.366Z,16.85
2018-07-19T03:31:26.388Z,16.88
2018-07-19T03:32:26.410Z,16.80
2018-07-19T03:33:26.438Z,16.75
2018-07-19T03:34:26.462Z,16.90
2018-07-19T03:35:26.482Z,16.88
2018-07-19T03:36:26.506Z,16.85
2018-07-19T03:37:26.536Z,16.84
2018-07-19T03:38:26.557Z,16.88
2018-07-19T03:39:26.574Z,16.96
2018-07-19T03:40:26.598Z,16.88
2018-07-19T03:41:26.620Z,16.88
2018-07-19T03:42:26.652Z,16.88
2018-07-19T03:43:26.666Z,16.90
2018-07-19T03:44:26.698Z,16.88
2018-07-19T03:45:26.712Z,16.90
2018-07-19T03:46:26.738Z,16.90
2018-07-19T03:47:26.765Z,16.90
2018-07-19T03:48:26.783Z,16.78
2018-07-19T03:49:26.812Z,16.84
2018-07-19T03:50:26.833Z,16.91
2018-07-19T03:51:26.856Z,16.85
2018-07-19T03:52:26.879Z,16.90
2018-07-19T03:53:26.901Z,16.91
2018-07-19T03:54:26.922Z,16.87
2018-07-19T03:55:26.949Z,16.91
2018-07-19T03:56:26.974Z,16.88
2018-07-19T03:57:26.994Z,17.00
2018-07-19T03:58:27.020Z,16.91
2018-07-19T03:59:27.042Z,16.88
2018-07-19T04:00:27.062Z,16.80
2018-07-19T04:01:27.087Z,16.80
2018-07-19T04:02:27.106Z,16.75
2018-07-19T04:03:27.132Z,16.78
2018-07-19T04:04:27.156Z,16.73
2018-07-19T04:05:27.184Z,16.84
2018-07-19T04:06:27.205Z,16.87
2018-07-19T04:07:27.229Z,16.92
2018-07-19T04:08:27.252Z,16.90
2018-07-19T04:09:27.272Z,16.92
2018-07-19T04:10:27.304Z,16.95
2018-07-19T04:11:27.323Z,17.03
2018-07-19T04:12:27.345Z,17.06
2018-07-19T04:13:27.367Z,17.05
2018-07-19T04:14:27.395Z,17.17
2018-07-19T04:15:27.418Z,17.18
2018-07-19T04:16:27.440Z,17.25
2018-07-19T04:17:27.464Z,17.21
2018-07-19T04:18:27.484Z,17.28
2018-07-19T04:19:27.511Z,17.24
2018-07-19T04:20:27.532Z,17.38
2018-07-19T04:21:27.555Z,17.32
2018-07-19T04:22:27.578Z,17.30
2018-07-19T04:23:27.603Z,17.30
2018-07-19T04:24:27.630Z,17.30
2018-07-19T04:25:27.645Z,17.25
2018-07-19T04:26:27.673Z,17.28
2018-07-19T04:27:27.690Z,17.28
2018-07-19T04:28:27.723Z,17.28
2018-07-19T04:29:27.739Z,17.27
2018-07-19T04:30:27.765Z,17.32
2018-07-19T04:31:27.795Z,17.38
2018-07-19T04:32:27.816Z,17.39
2018-07-19T04:33:27.829Z,17.35
2018-07-19T04:34:27.897Z,17.38
2018-07-19T04:35:27.875Z,17.38
2018-07-19T04:36:27.907Z,17.38
2018-07-19T04:37:27.926Z,17.32
2018-07-19T04:38:27.953Z,17.38
2018-07-19T04:39:27.971Z,17.43
2018-07-19T04:40:27.997Z,17.54
2018-07-19T04:41:28.025Z,17.42
2018-07-19T04:42:28.048Z,17.43
2018-07-19T04:43:28.069Z,17.43
2018-07-19T04:44:28.089Z,17.36
2018-07-19T04:45:28.117Z,17.39
2018-07-19T04:46:28.141Z,17.42
2018-07-19T04:47:28.367Z,17.35
2018-07-19T04:48:28.185Z,17.40
2018-07-19T04:49:28.213Z,17.36
2018-07-19T04:50:28.233Z,17.39
2018-07-19T04:51:28.264Z,17.43
2018-07-19T04:52:28.285Z,17.49
2018-07-19T04:53:28.301Z,17.43
2018-07-19T04:54:28.367Z,17.45
2018-07-19T04:55:28.351Z,17.38
2018-07-19T04:56:28.373Z,17.47
2018-07-19T04:57:28.395Z,17.38
2018-07-19T04:58:28.425Z,17.40
2018-07-19T04:59:32.078Z,17.40
2018-07-19T05:00:28.470Z,17.39
2018-07-19T05:01:28.495Z,17.39
2018-07-19T05:02:28.515Z,17.40
2018-07-19T05:03:28.541Z,17.40
2018-07-19T05:04:28.567Z,17.33
2018-07-19T05:05:28.583Z,17.40
2018-07-19T05:06:28.609Z,17.38
2018-07-19T05:07:28.646Z,17.46
2018-07-19T05:08:28.657Z,17.40
2018-07-19T05:09:28.683Z,17.49
2018-07-19T05:10:28.713Z,17.49
2018-07-19T05:11:28.731Z,17.53
2018-07-19T05:12:28.754Z,17.51
2018-07-19T05:13:28.780Z,17.57
2018-07-19T05:14:28.803Z,17.57
2018-07-19T05:15:28.831Z,17.54
2018-07-19T05:16:28.859Z,17.53
2018-07-19T05:17:28.879Z,17.62
2018-07-19T05:18:28.905Z,17.63
2018-07-19T05:19:28.930Z,17.65
2018-07-19T05:20:28.955Z,17.60
2018-07-19T05:21:28.977Z,17.65
2018-07-19T05:22:29.006Z,17.62
2018-07-19T05:23:29.033Z,17.55
2018-07-19T05:24:29.055Z,17.55
2018-07-19T05:25:29.077Z,17.47
2018-07-19T05:26:29.099Z,17.66
2018-07-19T05:27:29.122Z,17.58
2018-07-19T05:28:29.149Z,17.65
2018-07-19T05:29:29.182Z,17.65
2018-07-19T05:30:29.199Z,17.71
2018-07-19T05:31:29.225Z,17.62
2018-07-19T05:32:29.249Z,17.60
2018-07-19T05:33:29.275Z,17.66
2018-07-19T05:34:29.321Z,17.65
2018-07-19T05:35:29.323Z,17.65
2018-07-19T05:36:29.345Z,17.55
2018-07-19T05:37:29.381Z,17.68
2018-07-19T05:38:29.401Z,17.71
2018-07-19T05:39:29.420Z,17.63
2018-07-19T05:40:29.490Z,17.58
2018-07-19T05:41:29.479Z,17.71
2018-07-19T05:42:29.509Z,17.71
2018-07-19T05:43:29.522Z,17.84
2018-07-19T05:44:29.548Z,17.86
2018-07-19T05:45:29.570Z,17.83
2018-07-19T05:46:29.598Z,17.86
2018-07-19T05:47:29.626Z,17.79
2018-07-19T05:48:29.645Z,17.87
2018-07-19T05:49:29.669Z,17.84
2018-07-19T05:50:29.693Z,17.89
2018-07-19T05:51:29.720Z,17.83
2018-07-19T05:52:29.744Z,17.84
2018-07-19T05:53:29.766Z,17.83
2018-07-19T05:54:29.793Z,17.84
2018-07-19T05:55:29.819Z,17.81
2018-07-19T05:56:29.844Z,17.89
2018-07-19T05:57:29.869Z,17.91
2018-07-19T05:58:29.887Z,17.89
2018-07-19T05:59:29.918Z,17.96
2018-07-19T06:00:29.938Z,17.96
2018-07-19T06:01:29.969Z,17.98
2018-07-19T06:02:29.992Z,18.01
2018-07-19T06:03:30.012Z,17.99
2018-07-19T06:04:30.045Z,18.01
2018-07-19T06:05:30.064Z,17.98
2018-07-19T06:06:30.093Z,18.09
2018-07-19T06:07:30.124Z,18.05
2018-07-19T06:08:30.138Z,18.05
2018-07-19T06:09:30.197Z,18.01
2018-07-19T06:10:30.188Z,18.05
2018-07-19T06:11:30.212Z,18.02
2018-07-19T06:12:30.245Z,17.99
2018-07-19T06:13:30.261Z,18.13
2018-07-19T06:14:30.297Z,18.09
2018-07-19T06:15:30.317Z,18.16
2018-07-19T06:16:30.336Z,18.07
2018-07-19T06:17:30.377Z,18.17
2018-07-19T06:18:30.396Z,18.17
2018-07-19T06:19:30.417Z,18.25
2018-07-19T06:20:30.437Z,18.14
2018-07-19T06:21:30.464Z,18.25
2018-07-19T06:22:30.488Z,18.28
2018-07-19T06:23:30.518Z,18.20
2018-07-19T06:24:30.549Z,18.29
2018-07-19T06:25:30.571Z,18.31
2018-07-19T06:26:30.591Z,18.26
2018-07-19T06:27:30.621Z,18.34
2018-07-19T06:28:30.638Z,18.36
2018-07-19T06:29:30.662Z,18.34
2018-07-19T06:30:30.694Z,18.49
2018-07-19T06:31:30.738Z,18.47
2018-07-19T06:32:30.741Z,18.47
2018-07-19T06:33:30.759Z,18.49
2018-07-19T06:34:30.792Z,18.46
2018-07-19T06:35:30.813Z,18.50
2018-07-19T06:36:30.837Z,18.64
2018-07-19T06:37:30.864Z,18.59
2018-07-19T06:38:30.886Z,18.66
2018-07-19T06:39:30.917Z,18.66
2018-07-19T06:40:30.942Z,18.62
2018-07-19T06:41:30.962Z,18.50
2018-07-19T06:42:30.990Z,18.44
2018-07-19T06:43:31.017Z,18.53
2018-07-19T06:44:31.040Z,18.57
2018-07-19T06:45:31.068Z,18.50
2018-07-19T06:46:31.084Z,18.47
2018-07-19T06:47:31.117Z,18.65
2018-07-19T06:48:31.145Z,18.57
2018-07-19T06:49:31.213Z,18.66
2018-07-19T06:50:31.187Z,18.66
2018-07-19T06:51:31.220Z,18.66
2018-07-19T06:52:31.241Z,18.71
2018-07-19T06:53:31.261Z,18.75
2018-07-19T06:54:31.287Z,18.74
2018-07-19T06:55:31.315Z,18.84
2018-07-19T06:56:31.340Z,18.87
2018-07-19T06:57:31.370Z,18.84
2018-07-19T06:58:31.391Z,18.86
2018-07-19T06:59:31.422Z,18.94
2018-07-19T07:00:31.442Z,18.91
2018-07-19T07:01:31.466Z,18.87
2018-07-19T07:02:31.489Z,18.93
2018-07-19T07:03:31.518Z,18.90
2018-07-19T07:04:31.545Z,18.91
2018-07-19T07:05:31.570Z,18.99
2018-07-19T07:06:31.595Z,19.09
2018-07-19T07:07:31.619Z,19.15
2018-07-19T07:08:31.645Z,19.24
2018-07-19T07:09:31.669Z,19.24
2018-07-19T07:10:31.721Z,19.20
2018-07-19T07:11:31.721Z,19.31
2018-07-19T07:12:31.749Z,19.27
2018-07-19T07:13:31.771Z,19.28
2018-07-19T07:14:31.796Z,19.28
2018-07-19T07:15:31.817Z,19.30
2018-07-19T07:16:31.855Z,19.21
2018-07-19T07:17:31.871Z,19.24
2018-07-19T07:18:31.893Z,19.25
2018-07-19T07:19:31.923Z,19.34
2018-07-19T07:20:31.951Z,19.28
2018-07-19T07:21:31.973Z,19.32
2018-07-19T07:22:31.999Z,19.34
2018-07-19T07:23:32.026Z,19.46
2018-07-19T07:24:32.055Z,19.42
2018-07-19T07:25:32.078Z,19.58
2018-07-19T07:26:32.102Z,19.58
2018-07-19T07:27:32.127Z,19.50
2018-07-19T07:28:32.151Z,19.57
2018-07-19T07:29:32.178Z,19.60
2018-07-19T07:30:32.207Z,19.64
2018-07-19T07:31:32.229Z,19.67
2018-07-19T07:32:32.256Z,19.67
2018-07-19T07:33:32.283Z,19.64
2018-07-19T07:34:32.305Z,19.67
2018-07-19T07:35:32.333Z,19.79
2018-07-19T07:36:32.355Z,19.82
2018-07-19T07:37:32.381Z,19.80
2018-07-19T07:38:32.403Z,19.70
2018-07-19T07:39:32.438Z,19.72
2018-07-19T07:40:32.460Z,19.85
2018-07-19T07:41:32.483Z,19.89
2018-07-19T07:42:32.505Z,19.86
2018-07-19T07:43:32.537Z,19.98
2018-07-19T07:44:32.560Z,19.95
2018-07-19T07:45:32.587Z,19.89
2018-07-19T07:46:32.609Z,20.04
2018-07-19T07:47:32.639Z,20.07
2018-07-19T07:48:32.664Z,20.13
2018-07-19T07:49:32.687Z,20.07
2018-07-19T07:50:32.712Z,20.13
2018-07-19T07:51:32.743Z,20.10
2018-07-19T07:52:32.767Z,20.12
2018-07-19T07:53:32.795Z,20.07
2018-07-19T07:54:32.823Z,20.26
2018-07-19T07:55:32.845Z,20.10
2018-07-19T07:56:32.873Z,20.19
2018-07-19T07:57:32.896Z,20.19
2018-07-19T07:58:32.919Z,20.12
2018-07-19T07:59:32.948Z,20.22
2018-07-19T08:00:33.022Z,20.20
2018-07-19T08:01:32.998Z,20.23
2018-07-19T08:02:33.022Z,20.30
2018-07-19T08:03:33.052Z,20.31
2018-07-19T08:04:33.074Z,20.27
2018-07-19T08:05:33.099Z,20.25
2018-07-19T08:06:33.136Z,20.27
2018-07-19T08:07:33.151Z,20.33
2018-07-19T08:08:33.178Z,20.25
2018-07-19T08:09:33.205Z,20.26
2018-07-19T08:10:33.235Z,20.34
2018-07-19T08:11:33.257Z,20.38
2018-07-19T08:12:33.283Z,20.31
2018-07-19T08:13:33.311Z,20.31
2018-07-19T08:14:33.345Z,20.42
2018-07-19T08:15:33.357Z,20.38
2018-07-19T08:16:33.386Z,20.42
2018-07-19T08:17:33.413Z,20.51
2018-07-19T08:18:33.439Z,20.44
2018-07-19T08:19:33.465Z,20.42
2018-07-19T08:20:33.489Z,20.44
2018-07-19T08:21:33.521Z,20.54
2018-07-19T08:22:33.539Z,20.51
2018-07-19T08:23:33.565Z,20.64
2018-07-19T08:24:33.598Z,20.56
2018-07-19T08:25:33.619Z,20.63
2018-07-19T08:26:33.645Z,20.73
2018-07-19T08:27:33.669Z,20.68
2018-07-19T08:28:33.704Z,20.76
2018-07-19T08:29:33.730Z,20.73
2018-07-19T08:30:33.749Z,20.72
2018-07-19T08:31:33.774Z,20.81
2018-07-19T08:32:33.803Z,20.76
2018-07-19T08:33:33.822Z,20.85
2018-07-19T08:34:33.850Z,20.81
2018-07-19T08:35:33.877Z,20.85
2018-07-19T08:36:33.912Z,20.83
2018-07-19T08:37:33.929Z,20.81
2018-07-19T08:38:33.957Z,20.79
2018-07-19T08:39:33.976Z,20.82
2018-07-19T08:40:34.011Z,20.85
2018-07-19T08:41:34.033Z,20.88
2018-07-19T08:42:34.055Z,20.97
2018-07-19T08:43:34.092Z,20.97
2018-07-19T08:44:34.117Z,20.98
2018-07-19T08:45:34.137Z,20.98
2018-07-19T08:46:34.156Z,20.96
2018-07-19T08:47:34.193Z,21.01
2018-07-19T08:48:34.212Z,20.97
2018-07-19T08:49:34.240Z,21.08
2018-07-19T08:50:34.277Z,21.09
2018-07-19T08:51:34.305Z,21.11
2018-07-19T08:52:34.318Z,21.09
2018-07-19T08:53:34.348Z,21.08
2018-07-19T08:54:34.370Z,21.16
2018-07-19T08:55:34.397Z,21.16
2018-07-19T08:56:34.459Z,21.16
2018-07-19T08:57:34.453Z,21.22
2018-07-19T08:58:34.484Z,21.24
2018-07-19T08:59:34.502Z,21.19
2018-07-19T09:00:34.531Z,21.18
2018-07-19T09:01:34.553Z,21.30
2018-07-19T09:02:34.584Z,21.30
2018-07-19T09:03:34.609Z,21.28
2018-07-19T09:04:34.633Z,21.26
2018-07-19T09:05:34.658Z,21.33
2018-07-19T09:06:34.688Z,21.31
2018-07-19T09:07:34.708Z,21.45
2018-07-19T09:08:34.770Z,21.40
2018-07-19T09:09:34.773Z,21.42
2018-07-19T09:10:34.792Z,21.49
2018-07-19T09:11:34.819Z,21.51
2018-07-19T09:12:34.852Z,21.51
2018-07-19T09:13:34.871Z,21.48
2018-07-19T09:14:34.889Z,21.64
2018-07-19T09:15:34.921Z,21.58
2018-07-19T09:16:34.947Z,21.63
2018-07-19T09:17:34.969Z,21.61
2018-07-19T09:18:35.000Z,21.49
2018-07-19T09:19:35.110Z,21.59
2018-07-19T09:20:35.050Z,21.63
2018-07-19T09:21:35.090Z,21.61
2018-07-19T09:22:35.103Z,21.66
2018-07-19T09:23:35.138Z,21.59
2018-07-19T09:24:35.157Z,21.59
2018-07-19T09:25:35.185Z,21.70
2018-07-19T09:26:35.220Z,21.70
2018-07-19T09:27:35.237Z,21.77
2018-07-19T09:28:35.274Z,21.73
2018-07-19T09:29:35.290Z,21.71
2018-07-19T09:30:35.319Z,21.71
2018-07-19T09:31:35.340Z,21.67
2018-07-19T09:32:35.417Z,21.82
2018-07-19T09:33:35.401Z,21.82
2018-07-19T09:34:35.423Z,21.79
2018-07-19T09:35:35.448Z,21.89
2018-07-19T09:36:35.473Z,21.89
2018-07-19T09:37:35.501Z,21.90
2018-07-19T09:38:35.658Z,21.89
2018-07-19T09:39:35.552Z,21.98
2018-07-19T09:40:35.585Z,22.06
2018-07-19T09:41:35.603Z,22.11
2018-07-19T09:42:35.635Z,22.12
2018-07-19T09:43:35.670Z,22.12
2018-07-19T09:44:35.685Z,22.14
2018-07-19T09:45:35.713Z,22.15
2018-07-19T09:46:35.739Z,22.14
2018-07-19T09:47:35.767Z,22.29
2018-07-19T09:48:35.795Z,22.30
2018-07-19T09:49:35.817Z,22.38
2018-07-19T09:50:35.843Z,22.36
2018-07-19T09:51:35.883Z,22.30
2018-07-19T09:52:35.900Z,22.39
2018-07-19T09:53:35.923Z,22.27
2018-07-19T09:54:35.963Z,22.38
2018-07-19T09:55:35.981Z,22.45
2018-07-19T09:56:36.008Z,22.60
2018-07-19T09:57:36.033Z,22.66
2018-07-19T09:58:36.056Z,22.70
2018-07-19T09:59:36.089Z,22.69
2018-07-19T10:00:36.115Z,22.70
2018-07-19T10:01:36.141Z,22.81
2018-07-19T10:02:36.163Z,22.72
2018-07-19T10:03:36.188Z,22.74
2018-07-19T10:04:36.217Z,22.85
2018-07-19T10:05:36.267Z,22.88
2018-07-19T10:06:36.273Z,22.86
2018-07-19T10:07:36.303Z,22.85
2018-07-19T10:08:36.324Z,22.93
2018-07-19T10:09:36.362Z,22.96
2018-07-19T10:10:36.381Z,22.88
2018-07-19T10:11:36.411Z,22.94
2018-07-19T10:12:36.439Z,22.93
2018-07-19T10:13:36.525Z,22.99
2018-07-19T10:14:36.488Z,23.06
2018-07-19T10:15:36.517Z,23.11
2018-07-19T10:16:36.553Z,23.07
2018-07-19T10:17:36.566Z,23.06
2018-07-19T10:18:36.597Z,23.09
2018-07-19T10:19:36.642Z,23.11
2018-07-19T10:20:36.661Z,23.29
2018-07-19T10:21:36.676Z,23.25
2018-07-19T10:22:36.710Z,23.31
2018-07-19T10:23:36.753Z,23.34
2018-07-19T10:24:36.754Z,23.42
2018-07-19T10:25:36.795Z,23.31
2018-07-19T10:26:36.838Z,23.44
2018-07-19T10:27:36.845Z,23.53
2018-07-19T10:28:36.918Z,23.56
2018-07-19T10:29:36.941Z,23.63
2018-07-19T10:30:36.918Z,23.90
2018-07-19T10:31:36.947Z,24.05
2018-07-19T10:32:37.048Z,24.23
2018-07-19T10:33:36.998Z,24.23
2018-07-19T10:34:37.030Z,24.27
2018-07-19T10:35:37.058Z,24.16
2018-07-19T10:36:37.083Z,24.27
2018-07-19T10:37:37.150Z,24.46
2018-07-19T10:38:37.138Z,24.66
2018-07-19T10:39:37.167Z,24.86
2018-07-19T10:40:37.207Z,24.84
2018-07-19T10:41:37.220Z,24.90
2018-07-19T10:42:37.257Z,25.04
2018-07-19T10:43:37.281Z,24.94
2018-07-19T10:44:37.310Z,24.75
2018-07-19T10:45:37.334Z,24.70
2018-07-19T10:46:37.357Z,24.67
2018-07-19T10:47:37.388Z,24.68
2018-07-19T10:48:37.421Z,24.79
2018-07-19T10:49:37.449Z,24.77
2018-07-19T10:50:37.475Z,24.82
2018-07-19T10:51:37.506Z,24.74
2018-07-19T10:52:37.535Z,24.79
2018-07-19T10:53:37.562Z,24.83
2018-07-19T10:54:37.593Z,24.93
2018-07-19T10:55:37.619Z,25.12
2018-07-19T10:56:37.647Z,25.17
2018-07-19T10:57:37.676Z,25.30
2018-07-19T10:58:37.699Z,25.66
2018-07-19T10:59:37.725Z,25.91
2018-07-19T11:00:37.757Z,26.01
2018-07-19T11:01:37.781Z,25.96
2018-07-19T11:02:37.808Z,25.75
2018-07-19T11:03:37.843Z,25.79
2018-07-19T11:04:37.872Z,25.94
2018-07-19T11:05:37.898Z,26.00
2018-07-19T11:06:37.926Z,26.36
2018-07-19T11:07:37.958Z,26.41
2018-07-19T11:08:37.982Z,26.36
2018-07-19T11:09:38.105Z,26.12
2018-07-19T11:10:38.042Z,26.16
2018-07-19T11:11:38.071Z,26.46
2018-07-19T11:12:38.103Z,26.23
2018-07-19T11:13:38.131Z,25.94
2018-07-19T11:14:38.163Z,25.90
2018-07-19T11:15:38.229Z,26.00
2018-07-19T11:16:38.233Z,25.96
2018-07-19T11:17:38.248Z,25.74
2018-07-19T11:18:38.284Z,25.76
2018-07-19T11:19:38.311Z,25.81
2018-07-19T11:20:38.336Z,25.61
2018-07-19T11:21:38.370Z,25.41
2018-07-19T11:22:38.429Z,26.84
2018-07-19T11:23:38.428Z,28.38
2018-07-19T11:24:38.458Z,29.79
2018-07-19T11:25:38.490Z,31.40
2018-07-19T11:26:38.516Z,31.94
2018-07-19T11:27:38.550Z,32.47
2018-07-19T11:28:38.639Z,33.12
2018-07-19T11:29:38.606Z,33.26
2018-07-19T11:30:38.640Z,32.22
2018-07-19T11:31:38.678Z,30.97
2018-07-19T11:32:38.701Z,31.56
2018-07-19T11:33:38.732Z,32.53
2018-07-19T11:34:38.764Z,33.02
2018-07-19T11:35:38.803Z,34.08
2018-07-19T11:36:38.830Z,35.15
2018-07-19T11:37:38.880Z,34.61
2018-07-19T11:38:38.898Z,33.29
2018-07-19T11:39:38.935Z,31.79
2018-07-19T11:40:38.977Z,30.83
2018-07-19T11:41:39.010Z,30.85
2018-07-19T11:42:39.032Z,30.67
2018-07-19T11:43:39.067Z,31.28
2018-07-19T11:44:39.105Z,31.54
2018-07-19T11:45:39.132Z,30.75
2018-07-19T11:46:39.162Z,31.38
2018-07-19T11:47:39.200Z,31.16
2018-07-19T11:48:39.230Z,30.26
2018-07-19T11:49:39.260Z,29.91
2018-07-19T11:50:39.298Z,29.44
2018-07-19T11:51:39.329Z,28.89
2018-07-19T11:52:39.360Z,28.09
2018-07-19T11:53:39.394Z,27.68
2018-07-19T11:54:39.436Z,27.43
2018-07-19T11:55:39.507Z,27.72
2018-07-19T11:56:39.499Z,29.55
2018-07-19T11:57:39.526Z,31.41
2018-07-19T11:58:39.554Z,32.56
2018-07-19T11:59:39.584Z,31.64
2018-07-19T12:00:39.624Z,30.72
2018-07-19T12:01:39.698Z,30.06
2018-07-19T12:02:39.682Z,29.95
2018-07-19T12:03:39.720Z,31.92
2018-07-19T12:04:39.751Z,32.81
2018-07-19T12:05:39.782Z,33.70
2018-07-19T12:06:39.816Z,34.67
2018-07-19T12:07:39.856Z,33.71
2018-07-19T12:08:39.886Z,32.53
2018-07-19T12:09:39.916Z,31.74
2018-07-19T12:10:39.947Z,32.36
2018-07-19T12:11:39.978Z,32.17
2018-07-19T12:12:40.016Z,31.16
2018-07-19T12:13:40.058Z,30.60
2018-07-19T12:14:40.080Z,30.00
2018-07-19T12:15:40.108Z,29.27
2018-07-19T12:16:40.159Z,29.15
2018-07-19T12:17:40.184Z,30.29
2018-07-19T12:18:40.213Z,29.58
2018-07-19T12:19:40.254Z,29.21
2018-07-19T12:20:40.278Z,28.82
2018-07-19T12:21:40.312Z,28.09
2018-07-19T12:22:40.346Z,28.18
2018-07-19T12:23:40.375Z,28.11
2018-07-19T12:24:40.406Z,28.03
2018-07-19T12:25:40.442Z,28.97
2018-07-19T12:26:40.476Z,31.09
2018-07-19T12:27:40.510Z,32.73
2018-07-19T12:28:40.540Z,31.75
2018-07-19T12:29:40.568Z,32.54
2018-07-19T12:30:40.606Z,33.49
2018-07-19T12:31:40.640Z,32.49
2018-07-19T12:32:40.671Z,32.39
2018-07-19T12:33:40.700Z,33.17
2018-07-19T12:34:40.735Z,31.88
2018-07-19T12:35:40.776Z,30.85
2018-07-19T12:36:40.804Z,30.18
2018-07-19T12:37:40.835Z,29.64
2018-07-19T12:38:40.866Z,29.32
2018-07-19T12:39:40.899Z,28.91
2018-07-19T12:40:40.932Z,29.88
2018-07-19T12:41:40.978Z,31.90
2018-07-19T12:42:41.029Z,32.03
2018-07-19T12:43:41.039Z,32.25
2018-07-19T12:44:41.063Z,33.65
2018-07-19T12:45:41.100Z,34.56
2018-07-19T12:46:41.128Z,35.54
2018-07-19T12:47:41.169Z,36.43
2018-07-19T12:48:41.208Z,36.94
2018-07-19T12:49:41.232Z,36.21
2018-07-19T12:50:41.275Z,36.03
2018-07-19T12:51:41.311Z,35.52
2018-07-19T12:52:41.345Z,36.06
2018-07-19T12:53:41.384Z,35.69